Time;durP1;ratioP1;P1;durP2;ratioP2;P2;SDS_P1;SDS_P2;PMS_P1;PMS_P2;Temp;Humidity;BMP_temperature;BMP_pressure;BME280_temperature;BME280_humidity;BME280_pressure;Samples;Min_cycle;Max_cycle;Signal;HPM_P1;HPM_P2
2022/04/29 00:01:30;;;;;;;5.63;3.78;;;12.70;97.10;;;;;;5007272;28;20105;-77
2022/04/29 00:03:56;;;;;;;5.22;3.55;;;12.90;97.30;;;;;;4999175;28;20038;-77
2022/04/29 00:06:22;;;;;;;7.80;3.95;;;12.80;97.40;;;;;;5005379;28;20046;-77
2022/04/29 00:08:47;;;;;;;6.57;3.75;;;12.80;97.60;;;;;;4998913;28;20053;-77
2022/04/29 00:11:14;;;;;;;7.78;3.55;;;12.80;97.70;;;;;;5003715;28;20082;-77
2022/04/29 00:13:39;;;;;;;5.95;2.85;;;12.80;97.60;;;;;;4996702;28;20029;-77
2022/04/29 00:16:05;;;;;;;5.22;2.95;;;12.60;97.30;;;;;;5011826;28;20067;-75
2022/04/29 00:18:32;;;;;;;7.03;3.22;;;12.60;97.70;;;;;;4995020;28;20025;-76
2022/04/29 00:20:58;;;;;;;6.18;3.70;;;12.50;97.80;;;;;;5003844;28;20168;-77
2022/04/29 00:23:23;;;;;;;4.85;3.33;;;12.60;98.10;;;;;;5005884;28;20451;-76
2022/04/29 00:25:49;;;;;;;5.85;3.03;;;12.40;98.20;;;;;;5000964;28;20069;-77
2022/04/29 00:28:15;;;;;;;8.52;3.53;;;12.40;98.00;;;;;;5004098;28;20041;-75
2022/04/29 00:30:41;;;;;;;7.00;4.07;;;12.50;98.50;;;;;;5003560;28;20031;-75
2022/04/29 00:33:06;;;;;;;8.50;3.47;;;12.50;98.50;;;;;;4995490;28;20434;-75
2022/04/29 00:35:32;;;;;;;5.32;2.88;;;12.50;98.70;;;;;;4994223;28;20035;-76
2022/04/29 00:37:58;;;;;;;4.60;2.70;;;12.30;98.20;;;;;;5005675;28;20038;-75
2022/04/29 00:40:26;;;;;;;5.38;2.92;;;12.30;97.90;;;;;;5009088;28;20034;-75
2022/04/29 00:42:52;;;;;;;7.45;2.80;;;12.30;97.60;;;;;;5002536;28;20026;-76
2022/04/29 00:45:20;;;;;;;6.53;2.72;;;12.30;97.80;;;;;;5004962;28;20041;-75
2022/04/29 00:47:47;;;;;;;4.28;2.67;;;12.30;97.70;;;;;;5008315;28;20037;-75
2022/04/29 00:50:16;;;;;;;5.40;2.75;;;12.20;97.60;;;;;;5006969;28;20041;-75
2022/04/29 00:52:44;;;;;;;3.63;2.00;;;12.00;98.20;;;;;;5003513;28;20507;-75
2022/04/29 00:55:12;;;;;;;4.47;2.20;;;11.80;98.60;;;;;;5006128;28;20135;-75
2022/04/29 00:57:47;;;;;;;6.93;2.95;;;11.80;98.60;;;;;;5002210;28;20393;-75
2022/04/29 01:00:14;;;;;;;5.75;3.17;;;11.90;98.60;;;;;;5006832;28;20080;-75
2022/04/29 01:02:43;;;;;;;4.28;2.47;;;12.00;98.20;;;;;;4999887;28;20030;-75
2022/04/29 01:05:11;;;;;;;4.75;2.63;;;11.90;98.30;;;;;;5002895;28;20460;-75
2022/04/29 01:07:39;;;;;;;6.57;2.83;;;12.10;98.10;;;;;;4995245;28;20042;-75
2022/04/29 01:10:06;;;;;;;3.90;2.67;;;12.30;97.80;;;;;;5002793;28;20036;-75
2022/04/29 01:12:38;;;;;;;5.65;2.00;;;12.30;97.90;;;;;;5009942;28;20057;-75
2022/04/29 01:15:13;;;;;;;5.07;2.50;;;12.20;97.80;;;;;;5005332;28;20029;-75
2022/04/29 01:17:40;;;;;;;5.38;2.65;;;12.20;98.10;;;;;;5006595;28;20064;-76
2022/04/29 01:20:08;;;;;;;7.15;2.55;;;12.00;98.20;;;;;;5007275;28;20030;-75
2022/04/29 01:22:34;;;;;;;7.07;3.20;;;12.10;98.30;;;;;;5003203;28;20491;-75
2022/04/29 01:25:01;;;;;;;6.13;3.72;;;12.00;98.60;;;;;;5007967;28;20033;-75
2022/04/29 01:27:26;;;;;;;4.65;2.70;;;12.00;98.80;;;;;;5000165;28;20424;-75
2022/04/29 01:30:07;;;;;;;4.97;2.72;;;11.90;98.80;;;;;;5000294;28;20132;-75
2022/04/29 01:32:34;;;;;;;5.53;2.95;;;11.90;98.60;;;;;;4997654;28;20444;-75
2022/04/29 01:35:01;;;;;;;4.65;2.65;;;11.70;98.90;;;;;;5001699;28;20054;-75
2022/04/29 01:37:27;;;;;;;6.25;2.78;;;11.80;98.90;;;;;;4997278;28;20318;-75
2022/04/29 01:39:53;;;;;;;5.90;3.40;;;11.80;98.90;;;;;;5007182;28;20033;-74
2022/04/29 01:42:19;;;;;;;6.05;3.35;;;11.90;98.80;;;;;;5009014;28;20041;-75
2022/04/29 01:44:45;;;;;;;6.18;3.25;;;11.90;98.80;;;;;;5002362;28;20041;-75
2022/04/29 01:47:12;;;;;;;6.93;3.20;;;11.80;99.00;;;;;;5003175;28;20058;-74
2022/04/29 01:49:37;;;;;;;5.28;3.22;;;11.80;99.40;;;;;;5006506;28;20045;-75
2022/04/29 01:52:04;;;;;;;5.45;3.25;;;11.70;99.40;;;;;;5007318;28;20026;-75
2022/04/29 01:54:29;;;;;;;5.45;3.40;;;11.50;99.90;;;;;;5008487;28;20096;-75
2022/04/29 01:56:56;;;;;;;7.75;3.88;;;11.60;99.90;;;;;;5001817;28;20038;-74
2022/04/29 01:59:21;;;;;;;7.55;4.22;;;11.90;99.80;;;;;;5005943;28;20090;-74
2022/04/29 02:01:48;;;;;;;7.40;3.80;;;12.10;99.50;;;;;;5010266;28;20606;-75
2022/04/29 02:04:14;;;;;;;8.95;5.15;;;12.10;99.70;;;;;;5007067;28;20026;-74
2022/04/29 02:06:40;;;;;;;8.55;4.50;;;12.10;99.90;;;;;;5003709;28;20397;-75
2022/04/29 02:09:06;;;;;;;7.53;4.95;;;12.10;99.90;;;;;;4997397;28;20038;-74
2022/04/29 02:11:32;;;;;;;10.15;5.32;;;12.10;99.90;;;;;;5002359;28;20448;-75
2022/04/29 02:13:57;;;;;;;9.35;5.80;;;12.10;99.90;;;;;;5004232;28;20108;-74
2022/04/29 02:16:23;;;;;;;8.07;4.40;;;11.90;99.90;;;;;;4998435;28;20041;-74
2022/04/29 02:18:49;;;;;;;6.75;3.42;;;11.90;99.90;;;;;;5004900;28;20152;-74
2022/04/29 02:21:15;;;;;;;5.85;3.58;;;11.80;99.90;;;;;;5000521;28;20461;-74
2022/04/29 02:23:40;;;;;;;6.90;2.67;;;11.70;99.90;;;;;;5001759;28;20089;-74
2022/04/29 02:26:06;;;;;;;5.10;2.97;;;11.60;99.90;;;;;;5010637;28;20443;-75
2022/04/29 02:28:32;;;;;;;5.28;2.88;;;11.60;99.90;;;;;;5001306;28;20045;-75
2022/04/29 02:30:58;;;;;;;4.90;2.72;;;11.70;99.90;;;;;;5001507;28;20033;-75
2022/04/29 02:33:25;;;;;;;4.95;3.20;;;11.60;99.90;;;;;;5006075;28;20124;-75
2022/04/29 02:35:51;;;;;;;6.57;3.42;;;11.60;99.90;;;;;;4998321;28;20121;-75
2022/04/29 02:38:17;;;;;;;9.07;4.28;;;11.50;99.90;;;;;;5001010;28;20097;-74
2022/04/29 02:40:42;;;;;;;6.07;2.95;;;11.40;99.90;;;;;;5000801;28;20034;-74
2022/04/29 02:43:08;;;;;;;7.25;3.95;;;11.40;99.90;;;;;;4999226;28;20165;-75
2022/04/29 02:45:34;;;;;;;5.82;3.30;;;11.40;99.90;;;;;;4999635;28;20034;-75
2022/04/29 02:48:00;;;;;;;6.20;3.70;;;11.30;99.90;;;;;;5003697;28;20044;-74
2022/04/29 02:50:26;;;;;;;6.45;3.55;;;11.30;99.90;;;;;;5006707;28;20061;-77
2022/04/29 02:52:52;;;;;;;6.05;4.00;;;11.50;99.90;;;;;;5011043;28;20618;-76
2022/04/29 02:55:18;;;;;;;6.45;4.70;;;11.50;99.90;;;;;;5007942;28;20029;-75
2022/04/29 02:57:44;;;;;;;9.43;5.40;;;11.70;99.90;;;;;;5007156;28;20034;-74
2022/04/29 03:00:10;;;;;;;7.32;3.97;;;11.70;99.90;;;;;;5009028;28;20339;-74
2022/04/29 03:02:36;;;;;;;5.78;3.75;;;11.70;99.90;;;;;;5004628;28;20042;-74
2022/04/29 03:05:04;;;;;;;9.02;4.15;;;11.40;99.90;;;;;;4994254;28;20396;-73
2022/04/29 03:07:30;;;;;;;5.88;3.55;;;11.30;99.90;;;;;;4995103;28;20436;-74
2022/04/29 03:09:56;;;;;;;5.85;3.45;;;11.30;99.90;;;;;;4997737;28;20034;-73
2022/04/29 03:12:23;;;;;;;6.60;3.38;;;11.40;99.90;;;;;;5006861;28;20104;-74
2022/04/29 03:14:49;;;;;;;6.60;3.08;;;11.50;99.90;;;;;;5003394;28;20125;-73
2022/04/29 03:19:59;;;;;;;6.60;4.25;;;11.70;99.70;;;;;;4981247;28;20560;-74
2022/04/29 03:22:26;;;;;;;11.90;4.03;;;11.70;99.80;;;;;;4991709;28;20137;-73
2022/04/29 03:24:53;;;;;;;7.05;4.25;;;11.70;99.90;;;;;;4998132;28;20097;-73
2022/04/29 03:27:18;;;;;;;6.57;3.80;;;11.80;99.90;;;;;;4999382;28;20018;-74
2022/04/29 03:29:44;;;;;;;6.18;3.40;;;11.70;99.90;;;;;;4999152;28;20062;-73
2022/04/29 03:32:10;;;;;;;4.38;2.80;;;11.70;99.90;;;;;;5001520;28;20035;-73
2022/04/29 03:34:36;;;;;;;6.10;3.45;;;11.60;99.90;;;;;;4991288;28;20052;-73
2022/04/29 03:37:01;;;;;;;7.07;3.20;;;11.40;99.90;;;;;;5007603;28;20472;-73
2022/04/29 03:39:28;;;;;;;5.82;2.95;;;11.30;99.90;;;;;;5000620;28;20044;-73
2022/04/29 03:41:53;;;;;;;6.05;3.17;;;11.40;99.90;;;;;;5007593;28;20117;-73
2022/04/29 03:44:20;;;;;;;5.78;3.13;;;11.50;99.90;;;;;;5000157;28;20110;-73
2022/04/29 03:46:46;;;;;;;6.22;3.22;;;11.40;99.90;;;;;;5007116;28;20034;-74
2022/04/29 03:51:55;;;;;;;5.03;3.65;;;11.50;99.90;;;;;;5003190;28;20373;-74
2022/04/29 03:54:21;;;;;;;5.13;3.38;;;11.50;99.90;;;;;;5001947;28;20038;-74
2022/04/29 03:56:47;;;;;;;5.88;3.70;;;11.40;99.90;;;;;;4999035;28;20096;-74
2022/04/29 03:59:12;;;;;;;7.93;3.45;;;11.30;99.90;;;;;;5004277;28;20037;-74
2022/04/29 04:01:38;;;;;;;5.05;3.00;;;11.20;99.90;;;;;;5004134;28;20540;-74
2022/04/29 04:04:04;;;;;;;5.13;3.17;;;11.20;99.90;;;;;;5007815;28;20088;-74
2022/04/29 04:09:14;;;;;;;5.47;3.67;;;11.40;99.90;;;;;;5000251;28;20065;-74
2022/04/29 04:11:41;;;;;;;7.10;3.70;;;11.40;99.90;;;;;;4999922;28;20033;-74
2022/04/29 04:14:08;;;;;;;8.15;4.25;;;11.40;99.90;;;;;;5000048;28;20622;-74
2022/04/29 04:16:35;;;;;;;5.45;3.20;;;11.40;99.90;;;;;;4998506;28;20085;-74
2022/04/29 04:19:01;;;;;;;6.07;3.70;;;11.20;99.90;;;;;;4996137;28;20572;-74
2022/04/29 04:21:27;;;;;;;6.93;3.60;;;11.20;99.90;;;;;;5002658;28;20038;-74
2022/04/29 04:23:53;;;;;;;6.07;3.42;;;11.30;99.90;;;;;;4996331;28;20448;-74
2022/04/29 04:26:19;;;;;;;5.72;3.33;;;11.40;99.90;;;;;;4988088;28;20046;-74
2022/04/29 04:28:45;;;;;;;6.05;3.15;;;11.40;99.90;;;;;;4994507;28;20088;-74
2022/04/29 04:31:11;;;;;;;13.75;3.90;;;11.30;99.90;;;;;;4999326;28;20032;-74
2022/04/29 04:33:36;;;;;;;8.13;3.40;;;11.20;99.90;;;;;;4994318;28;20038;-74
2022/04/29 04:36:04;;;;;;;4.85;2.95;;;11.20;99.80;;;;;;4996824;28;20112;-74
2022/04/29 04:38:33;;;;;;;4.85;2.72;;;11.20;99.90;;;;;;4997189;28;20098;-74
2022/04/29 04:40:59;;;;;;;6.20;3.28;;;11.20;99.90;;;;;;5002512;28;20092;-74
2022/04/29 04:43:25;;;;;;;6.53;3.42;;;11.00;99.90;;;;;;4995480;28;20038;-74
2022/04/29 04:45:51;;;;;;;5.05;3.15;;;10.90;99.90;;;;;;5000384;28;20026;-74
2022/04/29 04:48:18;;;;;;;9.27;3.13;;;11.00;99.90;;;;;;5005342;28;20125;-74
2022/04/29 04:50:44;;;;;;;5.05;2.78;;;11.10;99.90;;;;;;5004599;28;20040;-74
2022/04/29 04:53:09;;;;;;;7.38;3.05;;;11.20;99.90;;;;;;4996786;28;20556;-74
2022/04/29 04:55:38;;;;;;;7.18;2.90;;;11.40;99.90;;;;;;4996390;28;20521;-74
2022/04/29 04:58:04;;;;;;;5.05;2.97;;;11.40;99.90;;;;;;5003889;28;20392;-74
2022/04/29 05:00:30;;;;;;;6.28;3.05;;;11.50;99.90;;;;;;5001867;28;20040;-74
2022/04/29 05:02:56;;;;;;;5.10;2.30;;;11.60;99.90;;;;;;5003859;28;20112;-74
2022/04/29 05:05:22;;;;;;;5.22;2.85;;;11.60;99.60;;;;;;4993650;28;20627;-74
2022/04/29 05:07:47;;;;;;;5.47;2.85;;;11.50;99.40;;;;;;4998094;28;20124;-74
2022/04/29 05:10:14;;;;;;;4.72;2.75;;;11.60;99.40;;;;;;4995822;28;20117;-74
2022/04/29 05:12:41;;;;;;;6.53;2.95;;;11.50;99.40;;;;;;5003508;28;20081;-74
2022/04/29 05:15:08;;;;;;;5.53;3.22;;;11.70;99.40;;;;;;4996113;28;20377;-74
2022/04/29 05:17:33;;;;;;;5.85;2.90;;;11.70;99.60;;;;;;5000465;28;20029;-74
2022/04/29 05:19:59;;;;;;;6.32;2.85;;;11.70;99.50;;;;;;5000970;28;20114;-74
2022/04/29 05:22:27;;;;;;;5.40;3.05;;;11.90;99.50;;;;;;5002004;28;20030;-74
2022/04/29 05:24:53;;;;;;;7.80;3.72;;;11.90;99.90;;;;;;5003446;28;20034;-76
2022/04/29 05:27:18;;;;;;;7.43;4.13;;;11.90;99.90;;;;;;4998352;28;20025;-76
2022/04/29 05:29:44;;;;;;;6.78;3.70;;;11.80;99.90;;;;;;5004871;28;20038;-73
2022/04/29 05:32:10;;;;;;;8.25;3.85;;;11.70;99.90;;;;;;4996850;28;20026;-74
2022/04/29 05:34:35;;;;;;;8.38;4.78;;;11.90;99.90;;;;;;4990780;28;20041;-75
2022/04/29 05:37:01;;;;;;;5.68;4.05;;;12.00;99.90;;;;;;4991687;28;20032;-75
2022/04/29 05:42:14;;;;;;;5.03;3.50;;;11.90;99.90;;;;;;5006908;28;20072;-73
2022/04/29 05:44:40;;;;;;;6.30;3.20;;;12.00;99.90;;;;;;5006169;28;20028;-73
2022/04/29 05:47:06;;;;;;;6.03;2.80;;;12.20;99.90;;;;;;5006695;28;20038;-73
2022/04/29 05:49:32;;;;;;;7.05;3.47;;;12.40;99.90;;;;;;5003528;28;20079;-73
2022/04/29 05:52:01;;;;;;;5.20;3.10;;;12.40;99.90;;;;;;5003519;28;20571;-73
2022/04/29 05:54:27;;;;;;;4.93;3.30;;;12.60;99.90;;;;;;5004001;28;20073;-73
2022/04/29 05:56:53;;;;;;;6.20;3.10;;;12.60;99.90;;;;;;5012273;28;20034;-74
2022/04/29 05:59:19;;;;;;;6.13;3.72;;;12.50;99.90;;;;;;5005311;28;20547;-75
2022/04/29 06:01:45;;;;;;;6.00;3.65;;;12.60;99.90;;;;;;5002993;28;20033;-75
2022/04/29 06:04:11;;;;;;;6.75;3.22;;;12.60;99.90;;;;;;4998451;28;20030;-76
2022/04/29 06:06:36;;;;;;;5.43;3.50;;;12.60;99.90;;;;;;4998950;28;20038;-75
2022/04/29 06:09:02;;;;;;;10.02;5.53;;;12.70;99.20;;;;;;4996065;28;20038;-76
2022/04/29 06:11:28;;;;;;;6.28;3.50;;;12.70;99.50;;;;;;4998157;28;20030;-74
2022/04/29 06:13:53;;;;;;;6.13;3.42;;;12.70;99.20;;;;;;5002228;28;20038;-75
2022/04/29 06:16:19;;;;;;;8.45;3.75;;;12.70;99.90;;;;;;4999051;28;20124;-75
2022/04/29 06:18:45;;;;;;;8.35;4.15;;;12.80;99.90;;;;;;4997098;28;20047;-76
2022/04/29 06:21:11;;;;;;;5.40;3.00;;;13.10;99.70;;;;;;4995227;28;20513;-75
2022/04/29 06:23:37;;;;;;;7.57;3.65;;;13.10;99.20;;;;;;5000863;28;20091;-76
2022/04/29 06:26:02;;;;;;;6.05;3.60;;;13.10;99.20;;;;;;4995804;28;20041;-74
2022/04/29 06:28:28;;;;;;;7.38;3.75;;;13.20;99.30;;;;;;4992500;28;20038;-75
2022/04/29 06:30:54;;;;;;;9.07;3.83;;;13.20;98.90;;;;;;4992904;28;20030;-75
2022/04/29 06:33:21;;;;;;;10.00;4.00;;;13.30;98.60;;;;;;4993170;28;20119;-75
2022/04/29 06:35:50;;;;;;;7.63;3.17;;;13.70;98.30;;;;;;5000471;28;20119;-75
2022/04/29 06:38:16;;;;;;;6.63;4.30;;;13.90;97.60;;;;;;4999365;28;20045;-75
2022/04/29 06:40:42;;;;;;;5.68;3.17;;;14.00;97.60;;;;;;4990073;28;20038;-75
2022/04/29 06:43:08;;;;;;;8.02;3.88;;;14.10;97.50;;;;;;5000313;28;20037;-75
2022/04/29 06:45:33;;;;;;;6.88;3.55;;;14.20;97.00;;;;;;4999134;28;20026;-75
2022/04/29 06:47:59;;;;;;;8.57;3.88;;;14.30;97.00;;;;;;4980851;28;20050;-75
2022/04/29 06:50:25;;;;;;;7.05;3.88;;;14.60;97.00;;;;;;4980787;28;20084;-75
2022/04/29 06:52:51;;;;;;;5.57;3.65;;;15.00;96.50;;;;;;4978102;28;20109;-77
2022/04/29 06:55:17;;;;;;;5.63;3.45;;;15.10;95.60;;;;;;4991949;28;20026;-74
2022/04/29 06:57:42;;;;;;;8.90;3.85;;;15.10;95.40;;;;;;4993370;28;20050;-75
2022/04/29 07:00:08;;;;;;;6.25;3.33;;;15.30;95.00;;;;;;4999437;28;20152;-76
2022/04/29 07:02:34;;;;;;;4.75;2.85;;;15.70;94.50;;;;;;5000091;28;20078;-75
2022/04/29 07:05:00;;;;;;;4.85;2.78;;;16.80;93.50;;;;;;4996627;28;20053;-76
2022/04/29 07:07:28;;;;;;;6.30;3.22;;;16.50;92.40;;;;;;5003171;28;20077;-77
2022/04/29 07:09:55;;;;;;;6.70;3.58;;;17.10;92.90;;;;;;5004017;28;20128;-74
2022/04/29 07:12:20;;;;;;;5.05;3.03;;;15.90;92.90;;;;;;5002371;28;20542;-75
2022/04/29 07:14:46;;;;;;;4.97;2.97;;;15.90;93.50;;;;;;4999560;28;20034;-75
2022/04/29 07:17:12;;;;;;;5.97;3.65;;;16.20;92.70;;;;;;5000517;28;20028;-74
2022/04/29 07:19:38;;;;;;;9.25;3.72;;;17.20;91.80;;;;;;5009240;28;20964;-74
2022/04/29 07:22:05;;;;;;;5.68;3.03;;;17.10;91.50;;;;;;5005142;28;20038;-75
2022/04/29 07:24:31;;;;;;;6.20;3.25;;;16.20;91.60;;;;;;5009568;28;20187;-74
2022/04/29 07:27:00;;;;;;;4.55;3.00;;;18.00;90.10;;;;;;5004609;28;20452;-75
2022/04/29 07:29:27;;;;;;;7.60;2.60;;;19.80;85.30;;;;;;4999706;28;20034;-77
2022/04/29 07:31:52;;;;;;;9.52;3.13;;;20.10;85.30;;;;;;5005749;28;20034;-74
2022/04/29 07:34:18;;;;;;;6.68;3.35;;;19.40;84.50;;;;;;4998147;28;20074;-75
2022/04/29 07:42:12;;;;;;;6.22;3.28;;;21.50;80.80;;;;;;4999539;28;20110;-75
2022/04/29 07:44:37;;;;;;;6.78;2.60;;;19.10;83.80;;;;;;4997196;28;20488;-75
2022/04/29 07:47:03;;;;;;;9.90;3.28;;;17.10;87.50;;;;;;4998648;28;20772;-75
2022/04/29 07:49:29;;;;;;;8.48;2.67;;;16.60;89.20;;;;;;4999852;28;20125;-75
2022/04/29 07:51:55;;;;;;;7.63;3.30;;;15.90;90.60;;;;;;5007512;28;20030;-75
2022/04/29 07:54:22;;;;;;;5.15;3.10;;;15.90;90.90;;;;;;5005461;28;20397;-75
2022/04/29 07:56:47;;;;;;;7.40;3.58;;;15.80;91.00;;;;;;5008007;28;20033;-75
2022/04/29 07:59:13;;;;;;;6.10;2.70;;;16.00;91.80;;;;;;5008550;28;20136;-75
2022/04/29 08:01:43;;;;;;;10.35;2.63;;;16.00;91.60;;;;;;5008119;28;20029;-75
2022/04/29 08:04:11;;;;;;;6.03;2.85;;;16.00;90.70;;;;;;5003352;28;20026;-75
2022/04/29 08:06:39;;;;;;;6.60;2.72;;;16.00;90.40;;;;;;4999154;28;20516;-75
2022/04/29 08:09:04;;;;;;;4.88;2.78;;;15.80;90.60;;;;;;5002826;28;20054;-75
2022/04/29 08:11:31;;;;;;;5.70;3.20;;;15.70;91.70;;;;;;5002344;28;20042;-76
2022/04/29 08:13:57;;;;;;;5.43;2.85;;;15.90;91.30;;;;;;5001183;28;20052;-76
2022/04/29 08:16:23;;;;;;;7.00;3.50;;;15.80;91.00;;;;;;4997568;28;20504;-75
2022/04/29 08:18:48;;;;;;;4.72;2.72;;;16.00;91.10;;;;;;5006512;28;20034;-75
2022/04/29 08:21:14;;;;;;;4.90;2.47;;;15.80;90.70;;;;;;5000430;28;20044;-74
2022/04/29 08:23:40;;;;;;;6.18;2.80;;;17.40;88.90;;;;;;4997717;28;20065;-74
2022/04/29 08:26:05;;;;;;;7.55;3.10;;;18.90;88.10;;;;;;4994135;28;20058;-75
2022/04/29 08:28:31;;;;;;;5.40;3.17;;;19.80;83.80;;;;;;4997603;28;20450;-75
2022/04/29 08:30:57;;;;;;;8.80;3.40;;;20.80;82.80;;;;;;4993230;28;20050;-74
2022/04/29 08:33:24;;;;;;;8.05;3.08;;;20.60;83.00;;;;;;5001830;28;20112;-75
2022/04/29 08:35:51;;;;;;;6.00;2.55;;;21.00;83.20;;;;;;4993056;28;20057;-75
2022/04/29 08:38:19;;;;;;;5.00;2.80;;;21.00;82.00;;;;;;4999681;28;20068;-74
2022/04/29 08:40:46;;;;;;;8.27;3.47;;;20.80;81.40;;;;;;4999083;28;20107;-75
2022/04/29 08:43:14;;;;;;;7.60;2.60;;;20.40;81.50;;;;;;4998251;28;20089;-75
2022/04/29 08:45:40;;;;;;;6.30;3.30;;;20.00;82.30;;;;;;4995615;28;20061;-74
2022/04/29 08:48:07;;;;;;;6.63;2.92;;;19.50;84.00;;;;;;4994476;28;20042;-75
2022/04/29 08:50:33;;;;;;;5.32;2.72;;;19.50;83.00;;;;;;5001697;28;20480;-75
2022/04/29 08:52:59;;;;;;;6.18;3.28;;;19.30;83.20;;;;;;4997588;28;20038;-74
2022/04/29 09:01:10;;;;;;;4.80;2.47;;;18.20;84.30;;;;;;4984146;28;20034;-75
2022/04/29 09:03:37;;;;;;;5.47;3.10;;;18.00;83.90;;;;;;4998510;28;20065;-75
2022/04/29 09:06:04;;;;;;;5.18;2.83;;;18.10;84.80;;;;;;4990751;28;20093;-74
2022/04/29 09:08:37;;;;;;;7.88;2.75;;;18.10;84.10;;;;;;4994721;28;20034;-75
2022/04/29 09:11:05;;;;;;;4.63;2.78;;;18.00;83.30;;;;;;4995941;28;20037;-75
2022/04/29 09:13:40;;;;;;;5.88;3.10;;;18.10;84.10;;;;;;4996633;28;20384;-74
2022/04/29 09:16:10;;;;;;;5.18;2.25;;;18.20;83.90;;;;;;4995468;28;20146;-74
2022/04/29 09:18:42;;;;;;;6.85;2.60;;;18.20;84.00;;;;;;5000057;28;20477;-75
2022/04/29 09:21:18;;;;;;;5.15;2.83;;;18.30;83.90;;;;;;5001731;28;20089;-74
2022/04/29 09:24:10;;;;;;;4.95;2.63;;;18.40;82.90;;;;;;5007344;28;20030;-75
2022/04/29 09:26:38;;;;;;;7.05;2.45;;;18.20;82.90;;;;;;4998135;28;20392;-75
2022/04/29 09:29:17;;;;;;;6.43;2.83;;;18.00;82.80;;;;;;5002631;28;20404;-75
2022/04/29 09:31:56;;;;;;;5.38;2.60;;;18.40;82.30;;;;;;4993897;28;20026;-75
2022/04/29 09:34:23;;;;;;;4.38;2.67;;;18.50;81.20;;;;;;4977653;28;20046;-74
2022/04/29 09:36:50;;;;;;;4.53;2.60;;;18.30;82.30;;;;;;4993562;28;20026;-74
2022/04/29 09:39:30;;;;;;;6.05;2.92;;;18.30;81.50;;;;;;5006758;28;20069;-75
2022/04/29 09:42:05;;;;;;;8.57;2.92;;;18.50;82.30;;;;;;5002485;28;20060;-75
2022/04/29 09:44:35;;;;;;;6.53;2.47;;;18.60;81.20;;;;;;5006286;28;20072;-74
2022/04/29 09:47:20;;;;;;;3.70;2.40;;;18.60;80.60;;;;;;5006606;28;20646;-74
2022/04/29 09:50:06;;;;;;;3.80;2.10;;;18.80;79.80;;;;;;5002392;28;20415;-75
2022/04/29 09:52:39;;;;;;;6.93;2.40;;;19.00;79.70;;;;;;5002645;28;20094;-75
2022/04/29 09:55:15;;;;;;;4.40;2.58;;;19.20;78.90;;;;;;5003322;28;20058;-75
2022/04/29 09:57:59;;;;;;;3.90;2.15;;;19.10;78.40;;;;;;4993902;28;20899;-74
2022/04/29 10:00:26;;;;;;;3.80;1.80;;;19.30;77.30;;;;;;5004118;28;20030;-74
2022/04/29 10:02:52;;;;;;;4.40;2.28;;;19.10;76.80;;;;;;5001472;28;20026;-75
2022/04/29 10:05:17;;;;;;;6.80;2.70;;;19.30;78.10;;;;;;4993277;28;20473;-74
2022/04/29 10:07:44;;;;;;;5.68;2.50;;;19.60;76.10;;;;;;4996115;28;20137;-74
2022/04/29 10:10:10;;;;;;;5.43;2.35;;;19.50;76.70;;;;;;4996526;28;20045;-74
2022/04/29 10:12:37;;;;;;;7.30;2.42;;;19.70;77.90;;;;;;5004351;28;20064;-75
2022/04/29 10:15:06;;;;;;;4.82;2.88;;;19.80;79.70;;;;;;4998262;28;20040;-75
2022/04/29 10:23:05;;;;;;;4.90;2.25;;;19.80;79.70;;;;;;5004195;28;20103;-76
2022/04/29 10:25:31;;;;;;;4.45;2.47;;;20.00;78.30;;;;;;5001902;28;20041;-75
2022/04/29 10:27:58;;;;;;;4.57;2.40;;;20.10;78.10;;;;;;4998625;28;20044;-75
2022/04/29 10:30:32;;;;;;;6.30;2.55;;;20.30;78.30;;;;;;4997241;28;20096;-75
2022/04/29 10:33:24;;;;;;;4.13;2.42;;;20.10;78.00;;;;;;5002718;28;20033;-75
2022/04/29 10:35:53;;;;;;;5.45;2.83;;;20.50;78.60;;;;;;4993583;28;20037;-75
2022/04/29 10:38:34;;;;;;;8.13;2.85;;;20.40;77.90;;;;;;4994535;28;20033;-75
2022/04/29 10:41:19;;;;;;;6.88;2.47;;;20.20;76.40;;;;;;4992321;28;20369;-74
2022/04/29 10:43:48;;;;;;;4.15;2.42;;;20.40;78.20;;;;;;4998514;28;20108;-75
2022/04/29 10:46:13;;;;;;;4.32;2.50;;;20.40;76.40;;;;;;5001896;28;20107;-75
2022/04/29 10:48:40;;;;;;;5.65;2.53;;;20.30;76.60;;;;;;5006683;28;20038;-75
2022/04/29 10:51:24;;;;;;;4.15;2.47;;;20.60;77.40;;;;;;4998508;28;20041;-75
2022/04/29 10:53:53;;;;;;;4.03;2.63;;;20.60;76.90;;;;;;4995788;28;20040;-75
2022/04/29 10:56:31;;;;;;;3.53;2.03;;;20.70;76.40;;;;;;4981515;28;20044;-74
2022/04/29 10:59:21;;;;;;;4.53;2.58;;;20.80;75.80;;;;;;4990391;28;20069;-76
2022/04/29 11:02:04;;;;;;;10.60;4.32;;;20.60;75.80;;;;;;4997800;28;20034;-75
2022/04/29 11:04:34;;;;;;;4.97;3.13;;;21.10;76.20;;;;;;4997031;28;20362;-75
2022/04/29 11:07:00;;;;;;;3.88;2.40;;;21.20;76.30;;;;;;5000572;28;20135;-75
2022/04/29 11:09:46;;;;;;;3.85;2.15;;;21.20;76.30;;;;;;5000081;28;20053;-74
2022/04/29 11:12:30;;;;;;;6.70;2.97;;;21.00;76.40;;;;;;4997426;28;20527;-75
2022/04/29 11:15:21;;;;;;;5.28;2.63;;;20.80;73.60;;;;;;4999045;28;20519;-75
2022/04/29 11:17:47;;;;;;;4.25;2.50;;;20.70;74.70;;;;;;4995741;28;20022;-75
2022/04/29 11:20:20;;;;;;;5.85;2.78;;;20.80;76.70;;;;;;4995782;28;20037;-75
2022/04/29 11:25:51;;;;;;;4.47;2.20;;;21.10;75.00;;;;;;5003323;28;20495;-75
2022/04/29 11:28:17;;;;;;;8.10;2.45;;;21.00;74.70;;;;;;5001848;28;20084;-74
2022/04/29 11:30:44;;;;;;;4.03;2.00;;;21.00;75.00;;;;;;5002283;28;20044;-75
2022/04/29 11:33:10;;;;;;;6.82;2.80;;;20.70;72.70;;;;;;5004923;28;20712;-75
2022/04/29 11:35:36;;;;;;;4.90;2.28;;;21.10;75.50;;;;;;5003090;28;20030;-75
2022/04/29 11:38:02;;;;;;;3.58;2.30;;;21.30;75.00;;;;;;5002494;28;20034;-75
2022/04/29 11:40:28;;;;;;;5.13;2.50;;;21.20;74.40;;;;;;5008734;28;20117;-75
2022/04/29 11:42:54;;;;;;;5.05;2.45;;;21.60;74.40;;;;;;5007384;28;20120;-74
2022/04/29 11:45:22;;;;;;;6.03;2.40;;;21.40;75.10;;;;;;5008808;28;20558;-75
2022/04/29 11:47:47;;;;;;;4.63;2.25;;;21.20;73.30;;;;;;5000412;28;20038;-75
2022/04/29 11:50:13;;;;;;;5.30;2.53;;;20.70;72.50;;;;;;5006607;28;20021;-75
2022/04/29 11:52:39;;;;;;;6.40;2.22;;;21.30;76.90;;;;;;5008345;28;20078;-75
2022/04/29 11:55:06;;;;;;;9.43;2.60;;;21.50;75.10;;;;;;5006293;28;20026;-74
2022/04/29 11:57:41;;;;;;;5.65;2.17;;;21.90;75.50;;;;;;5002552;28;20036;-74
2022/04/29 12:00:08;;;;;;;4.75;2.05;;;21.90;73.80;;;;;;5003492;28;20030;-73
2022/04/29 12:02:33;;;;;;;4.60;2.10;;;21.80;76.20;;;;;;5007135;28;20034;-74
2022/04/29 12:05:04;;;;;;;5.38;2.20;;;21.90;74.00;;;;;;5000634;28;20423;-74
2022/04/29 12:07:39;;;;;;;3.30;1.90;;;21.90;75.00;;;;;;5005280;28;20053;-74
2022/04/29 12:10:37;;;;;;;9.35;2.08;;;22.20;76.00;;;;;;5002657;28;20496;-74
2022/04/29 12:13:04;;;;;;;6.38;3.10;;;22.30;73.20;;;;;;4992270;28;20037;-74
2022/04/29 12:15:32;;;;;;;4.43;2.33;;;22.20;73.70;;;;;;4992363;28;20038;-74
2022/04/29 12:18:03;;;;;;;3.55;1.98;;;22.00;73.80;;;;;;4997496;28;20063;-75
2022/04/29 12:20:30;;;;;;;3.92;2.03;;;22.10;74.10;;;;;;5000325;28;20046;-74
2022/04/29 12:23:19;;;;;;;7.15;2.30;;;22.10;74.30;;;;;;4997441;28;20034;-74
2022/04/29 12:25:47;;;;;;;5.05;2.38;;;22.10;73.60;;;;;;4994429;28;20041;-74
2022/04/29 12:28:19;;;;;;;4.10;2.35;;;22.10;71.90;;;;;;4996693;28;20058;-74
2022/04/29 12:36:47;;;;;;;4.63;2.30;;;22.00;71.70;;;;;;5001162;28;20064;-74
2022/04/29 12:39:13;;;;;;;4.38;2.13;;;22.40;73.50;;;;;;4994966;28;20038;-74
2022/04/29 12:41:38;;;;;;;3.30;1.90;;;22.60;72.70;;;;;;5002967;28;20041;-74
2022/04/29 12:44:08;;;;;;;3.60;2.03;;;22.70;71.80;;;;;;4997775;28;20034;-74
2022/04/29 12:46:34;;;;;;;4.75;2.42;;;22.80;71.80;;;;;;5002845;28;20547;-74
2022/04/29 12:48:59;;;;;;;8.18;2.60;;;22.90;73.40;;;;;;4998296;28;20097;-74
2022/04/29 12:51:31;;;;;;;4.22;2.45;;;22.70;69.70;;;;;;4997501;28;20032;-74
2022/04/29 12:53:57;;;;;;;3.65;2.13;;;22.40;71.10;;;;;;4994527;28;20061;-74
2022/04/29 12:56:29;;;;;;;6.43;2.25;;;22.60;73.80;;;;;;4997359;28;20144;-74
2022/04/29 12:58:55;;;;;;;7.88;2.40;;;22.70;70.90;;;;;;5000206;28;20044;-75
2022/04/29 13:01:21;;;;;;;4.60;2.42;;;22.70;71.70;;;;;;4997188;28;20587;-74
2022/04/29 13:03:52;;;;;;;8.05;2.67;;;22.80;70.90;;;;;;5000532;28;20056;-75
2022/04/29 13:06:20;;;;;;;5.60;2.28;;;22.80;71.80;;;;;;4996380;28;20064;-75
2022/04/29 13:08:46;;;;;;;5.70;1.95;;;22.90;70.10;;;;;;5000108;28;20095;-74
2022/04/29 13:11:18;;;;;;;3.67;1.63;;;22.90;69.60;;;;;;5002772;28;20498;-74
2022/04/29 13:13:44;;;;;;;4.20;1.48;;;22.80;71.10;;;;;;4995826;28;20026;-74
2022/04/29 13:16:09;;;;;;;3.78;2.25;;;22.90;70.90;;;;;;4993264;28;20034;-75
2022/04/29 13:18:35;;;;;;;4.57;1.73;;;22.80;71.60;;;;;;5003836;28;20101;-74
2022/04/29 13:21:06;;;;;;;6.13;2.05;;;22.90;69.80;;;;;;4999674;28;20041;-74
2022/04/29 13:23:34;;;;;;;4.20;2.45;;;23.10;71.50;;;;;;4998682;28;20092;-74
2022/04/29 13:26:01;;;;;;;6.57;2.20;;;22.90;70.20;;;;;;4980999;28;20070;-74